Saturday, January 20, 2018, 8:23 AM EST
Back to Local

KEWB, New Bedford Regional Airport

Location: New Bedford, MA, United States Lat: 41.683
Local Time: 8:23 AM EST (13:23 GMT) Lon: -70.967
Time Zone: US/Eastern Elev: 78 ft

Show me the last for .
Show Coded

Time T Td Feel RH Dir Speed Gust Alt SLP Vis Weather Sky Remarks
2018-01-20 07:53 39 26 28 59 230° 14 26 29.74 29.74 10 CLR None
2018-01-20 06:53 38 25 29 59 240° 15 - 29.75 29.75 10 CLR 6-hr Min Temp (7am): 25.0°F
6-hr Max Temp (7am): 37.9°F
2018-01-20 05:53 37 24 29 59 220° 13 - 29.78 29.78 10 CLR None
2018-01-20 04:53 36 25 30 63 230° 8 - 29.81 29.81 10 CLR None
2018-01-20 03:53 36 27 28 69 230° 10 - 29.83 29.83 10 CLR None
2018-01-20 01:53 29 24 23 81 210° 6 - 29.86 29.86 10 CLR None
2018-01-20 00:53 25 21 19 84 200° 5 - 29.88 29.88 10 CLR 6-hr Min Temp (1am): 24.1°F
6-hr Max Temp (1am): 28.9°F
2018-01-19 23:53 27 20 22 74 200° 5 - 29.92 29.92 10 CLR 24-hr Min Temp (12am): 21.0°F
24-hr Max Temp (12am): 35.1°F
2018-01-19 22:53 27 20 20 74 230° 6 - 29.95 29.95 10 CLR None
2018-01-19 21:53 28 20 22 71 230° 6 - 29.97 29.97 10 CLR None
2018-01-19 20:53 28 21 23 74 210° 5 - 29.97 29.97 10 CLR None
2018-01-19 19:53 28 20 22 71 250° 6 - 29.96 29.96 10 CLR None
2018-01-19 18:53 28 20 24 71 240° 3 - 29.94 29.94 10 CLR 6-hr Min Temp (7pm): 26.1°F
6-hr Max Temp (7pm): 35.1°F
2018-01-19 17:53 29 20 - 68 - Calm - 29.95 29.95 10 FEW040 None
2018-01-19 16:53 31 19 26 60 250° 5 - 29.95 29.95 10 CLR None
2018-01-19 15:53 34 18 29 51 250° 6 - 29.94 29.94 10 CLR None
2018-01-19 14:53 34 19 27 53 270° 8 - 29.93 29.93 10 CLR None
2018-01-19 13:53 35 19 27 51 270° 10 - 29.92 29.92 10 CLR None
2018-01-19 12:53 33 19 24 55 270° 12 - 29.93 29.93 10 CLR 6-hr Min Temp (1pm): 21.0°F
6-hr Max Temp (1pm): 34.0°F
2018-01-19 11:53 32 18 23 55 260° 12 - 29.95 29.96 10 CLR None
2018-01-19 10:53 30 18 20 60 270° 13 - 29.99 29.99 10 BKN030 None
2018-01-19 09:53 28 18 19 65 270° 10 - 30.00 30.00 10 OVC034 None
2018-01-19 08:53 26 18 16 70 280° 10 - 30.00 30.01 10 CLR None

Support USWX by starting your Amazon purchase here.